Huvudsida
METAR-TAF:

METAR-TAF

Flygplatser :

Xi'an, Kina

Xi'an Xianyang International Airport

latitud: 34-26N, longitud: 108-45E, höjd: 479 m

Aktuellt väderrapport

Denna rapport gjordes för 1 timme och 7 minuter sedan, klockan 00:00 UTC
Stilla vind
Temperatur -3°C
Fuktighet 100%
Tryck 1023 hPa
Sikt: 3500 m
fuktdis

METAR: ZLXY 200000Z 00000MPS 3500 BR NSC M03/M03 Q1023 BECMG TL0100 2800 RMK HZ

Tid: 09:07 (01:07 UTC)

Väderprognos

Denna rapport gjordes för 6 timmar och 2 minuter sedan, klockan 19:05 UTC
Prognos gäller från 20 kl. 00 UTC till 20 kl. 24 UTC
Vind 6 kt från väst
Sikt: 3000 m
torrdis

TAF: ZLXY 191905Z 2000/2024 26003MPS 3000 HZ NSC TX09/2007Z TNM05/23Z

Aktuella väderrapporter och prognoser från 4000 flygplatser (METAR- och TAF-rapporter).

De tillgängliga stationerna syns som gula och röda prickar på kartan.

För musen över prickarna för att se namnen på stationerna.

Klicka sedan för att få väderrapporter och prognoser.

För att ändra kartan: Klicka på de gröna knapparna med ett svart kors på för att zooma in; den gröna knappen med ett streck på för att zooma ut; eller på de gröna pilarna för angränsande kartor.


METAR-TAF: